Terminal Aerodrome Forecast
Issued by NWS

Home | Current Version | Previous Version | Text Only | Print | Product List | Glossary On
Versions: 1 2 3 4 5 6 7 8 9 10 11 12 13 14 15 16 17 18 19 20 21 22 23 24 25 26 27
148
FTUS45 KGGW 141720
TAFOLF
TAF
KOLF 141720Z 1418/1518 15009KT P6SM -SHRA OVC090
     FM142200 11006KT P6SM VCSH BKN070
     FM150600 10005KT P6SM SCT110
     FM150900 VRB03KT P6SM SCT021=

USA.gov is the U.S. government's official web portal to all federal, state and local government web resources and services.